Terminal Aerodrome Forecast
Issued by NWS

Home | Current Version | Previous Version | Text Only | Print | Product List | Glossary On
Versions: 1 2 3 4 5 6 7 8 9 10 11 12 13 14 15 16
689
FTUS46 KHNX 201120
TAFFAT
TAF
KFAT 201120Z 2012/2112 12012G19KT P6SM -RA BKN050 OVC080
     FM201400 13014G21KT P6SM -RA OVC050
     FM202000 15011KT P6SM -SHRA SCT025 BKN040 PROB30 2021/2103 3SM
      TSRAPL BKN025CB
     FM210300 27010KT P6SM -SHRA OVC040=

USA.gov is the U.S. government's official web portal to all federal, state and local government web resources and services.